TFL1925 LGRP-EHAM
Flight info
| Callsign | TFL1925 |
|---|---|
| Flight time | 3h 22m |
| Altitude | 32000 |
| Route | VANES M601 GILOS UM601 ADESO UN133 RIGRO DCT AMISI DCT DISOR DCT SKJ DCT LONTA UL608 DOLEV DCT MITNO DCT YULHU DCT AGLIB DCT BEDOX DCT SIMBA DCT EXITI DCT GASKA DCT MAPOX DCT NORKU |
| Aircraft | B738/M-SDE2E3FGHIRWXY/LB1 |
Departure
| Time | 2026-05-04 20:03 |
|---|---|
| Airport | Rhodes International Airport "Diagoras" (LGRP) |
Arrival
| Time | 2026-05-04 23:25 |
|---|---|
| Airport | Amsterdam Airport Schiphol (EHAM) |
| Time | Latitude | Longitude | Altitude | Speed | Heading |
|---|---|---|---|---|---|
| 2026-05-04 19:57 | 36.40413 | 28.09048 | 27 ft | 0 kts | 70° |
| 2026-05-04 19:58 | 36.40421 | 28.09077 | 27 ft | 10 kts | 70° |
| 2026-05-04 19:58 | 36.40448 | 28.09165 | 27 ft | 11 kts | 70° |
| 2026-05-04 19:58 | 36.40475 | 28.09255 | 27 ft | 11 kts | 69° |
| 2026-05-04 19:59 | 36.40507 | 28.09336 | 27 ft | 10 kts | 51° |
| 2026-05-04 19:59 | 36.40563 | 28.09395 | 27 ft | 11 kts | 40° |
| 2026-05-04 19:59 | 36.40618 | 28.09517 | 27 ft | 19 kts | 71° |
| 2026-05-04 19:59 | 36.40651 | 28.09630 | 27 ft | 18 kts | 70° |
| 2026-05-04 20:00 | 36.40693 | 28.09770 | 27 ft | 17 kts | 69° |
| 2026-05-04 20:00 | 36.40735 | 28.09907 | 27 ft | 17 kts | 70° |
| 2026-05-04 20:00 | 36.40773 | 28.10040 | 27 ft | 16 kts | 70° |
| 2026-05-04 20:00 | 36.40811 | 28.10167 | 27 ft | 15 kts | 70° |
| 2026-05-04 20:01 | 36.40847 | 28.10289 | 27 ft | 15 kts | 70° |
| 2026-05-04 20:01 | 36.40878 | 28.10397 | 27 ft | 11 kts | 63° |
| 2026-05-04 20:01 | 36.40939 | 28.10434 | 27 ft | 10 kts | 348° |
| 2026-05-04 20:01 | 36.40990 | 28.10376 | 28 ft | 10 kts | 297° |
| 2026-05-04 20:02 | 36.41017 | 28.10299 | 30 ft | 10 kts | 288° |
| 2026-05-04 20:02 | 36.41015 | 28.10241 | 26 ft | 2 kts | 250° |
| 2026-05-04 20:02 | 36.40968 | 28.10083 | 30 ft | 52 kts | 250° |
| 2026-05-04 20:02 | 36.40767 | 28.09395 | 30 ft | 116 kts | 249° |
| 2026-05-04 20:03 | 36.40479 | 28.08373 | 34 ft | 163 kts | 257° |
| 2026-05-04 20:03 | 36.40110 | 28.07009 | 651 ft | 166 kts | 257° |
| 2026-05-04 20:03 | 36.39851 | 28.05537 | 1160 ft | 177 kts | 270° |
| 2026-05-04 20:03 | 36.39731 | 28.04006 | 1806 ft | 183 kts | 272° |
| 2026-05-04 20:04 | 36.39616 | 28.02321 | 2054 ft | 208 kts | 271° |
| 2026-05-04 20:04 | 36.39484 | 28.00447 | 2304 ft | 227 kts | 270° |
| 2026-05-04 20:04 | 36.39337 | 27.98465 | 2856 ft | 231 kts | 270° |
| 2026-05-04 20:04 | 36.39186 | 27.96473 | 3467 ft | 235 kts | 270° |
| 2026-05-04 20:05 | 36.39030 | 27.94424 | 3987 ft | 242 kts | 271° |
| 2026-05-04 20:05 | 36.38868 | 27.92322 | 4470 ft | 252 kts | 270° |
| 2026-05-04 20:05 | 36.38696 | 27.90088 | 4872 ft | 265 kts | 270° |
| 2026-05-04 20:05 | 36.38686 | 27.87801 | 5557 ft | 265 kts | 281° |
| 2026-05-04 20:06 | 36.38908 | 27.85562 | 6353 ft | 265 kts | 283° |
| 2026-05-04 20:06 | 36.39175 | 27.83287 | 7099 ft | 267 kts | 283° |
| 2026-05-04 20:06 | 36.39441 | 27.81014 | 7902 ft | 266 kts | 283° |
| 2026-05-04 20:06 | 36.39699 | 27.78738 | 8722 ft | 265 kts | 283° |
| 2026-05-04 20:07 | 36.39895 | 27.76948 | 9366 ft | 265 kts | 283° |
| 2026-05-04 20:07 | 36.40138 | 27.74673 | 10106 ft | 266 kts | 282° |
| 2026-05-04 20:07 | 36.40384 | 27.72351 | 10481 ft | 281 kts | 282° |
| 2026-05-04 20:07 | 36.40647 | 27.69843 | 10655 ft | 303 kts | 282° |
| 2026-05-04 20:08 | 36.40923 | 27.67164 | 10817 ft | 323 kts | 281° |
| 2026-05-04 20:08 | 36.41128 | 27.65139 | 10928 ft | 337 kts | 281° |
| 2026-05-04 20:08 | 36.41423 | 27.62175 | 11075 ft | 355 kts | 281° |
| 2026-05-04 20:08 | 36.41725 | 27.59101 | 11317 ft | 369 kts | 280° |
| 2026-05-04 20:09 | 36.42033 | 27.55914 | 11799 ft | 374 kts | 280° |
| 2026-05-04 20:09 | 36.42344 | 27.52693 | 12384 ft | 377 kts | 280° |
| 2026-05-04 20:09 | 36.42657 | 27.49446 | 12974 ft | 379 kts | 280° |
| 2026-05-04 20:09 | 36.42971 | 27.46191 | 13524 ft | 383 kts | 280° |
| 2026-05-04 20:10 | 36.43271 | 27.43095 | 13907 ft | 389 kts | 280° |
| 2026-05-04 20:10 | 36.43595 | 27.39739 | 14425 ft | 391 kts | 280° |
| 2026-05-04 20:10 | 36.43919 | 27.36379 | 15003 ft | 393 kts | 281° |
| 2026-05-04 20:10 | 36.44242 | 27.33007 | 15566 ft | 394 kts | 281° |
| 2026-05-04 20:11 | 36.44566 | 27.29618 | 16105 ft | 396 kts | 281° |
| 2026-05-04 20:11 | 36.44892 | 27.26209 | 16612 ft | 398 kts | 281° |
| 2026-05-04 20:11 | 36.45219 | 27.22782 | 17108 ft | 401 kts | 281° |
| 2026-05-04 20:11 | 36.45546 | 27.19336 | 17593 ft | 403 kts | 282° |
| 2026-05-04 20:12 | 36.45876 | 27.15853 | 18015 ft | 406 kts | 282° |
| 2026-05-04 20:12 | 36.46202 | 27.12402 | 18385 ft | 410 kts | 282° |
| 2026-05-04 20:12 | 36.46535 | 27.08863 | 18791 ft | 413 kts | 282° |
| 2026-05-04 20:12 | 36.46869 | 27.05309 | 19160 ft | 416 kts | 282° |
| 2026-05-04 20:13 | 36.47277 | 27.01748 | 19513 ft | 417 kts | 284° |
| 2026-05-04 20:13 | 36.47748 | 26.98202 | 19868 ft | 420 kts | 284° |
| 2026-05-04 20:13 | 36.48226 | 26.94580 | 20219 ft | 423 kts | 284° |
| 2026-05-04 20:13 | 36.48688 | 26.90953 | 20560 ft | 427 kts | 283° |
| 2026-05-04 20:14 | 36.49136 | 26.87295 | 20903 ft | 430 kts | 283° |
| 2026-05-04 20:14 | 36.49570 | 26.83592 | 21155 ft | 434 kts | 283° |
| 2026-05-04 20:14 | 36.50000 | 26.79860 | 21454 ft | 438 kts | 282° |
| 2026-05-04 20:14 | 36.50425 | 26.76149 | 21788 ft | 440 kts | 282° |
| 2026-05-04 20:15 | 36.50859 | 26.72377 | 22106 ft | 442 kts | 282° |
| 2026-05-04 20:15 | 36.51296 | 26.68581 | 22402 ft | 445 kts | 282° |
| 2026-05-04 20:15 | 36.51738 | 26.64756 | 22694 ft | 448 kts | 282° |
| 2026-05-04 20:15 | 36.52180 | 26.60915 | 22998 ft | 450 kts | 282° |
| 2026-05-04 20:16 | 36.52664 | 26.57065 | 23274 ft | 450 kts | 287° |
| 2026-05-04 20:16 | 36.53818 | 26.53488 | 23401 ft | 445 kts | 306° |
| 2026-05-04 20:16 | 36.55746 | 26.50518 | 23682 ft | 442 kts | 318° |
| 2026-05-04 20:16 | 36.58145 | 26.48168 | 23939 ft | 439 kts | 331° |
| 2026-05-04 20:17 | 36.60881 | 26.46470 | 24195 ft | 439 kts | 336° |
| 2026-05-04 20:17 | 36.63667 | 26.44892 | 24411 ft | 441 kts | 337° |
| 2026-05-04 20:17 | 36.66472 | 26.43319 | 24620 ft | 443 kts | 337° |
| 2026-05-04 20:17 | 36.69286 | 26.41727 | 24842 ft | 445 kts | 336° |
| 2026-05-04 20:18 | 36.72098 | 26.40113 | 25070 ft | 446 kts | 336° |
| 2026-05-04 20:18 | 36.74926 | 26.38471 | 25296 ft | 448 kts | 336° |
| 2026-05-04 20:18 | 36.77755 | 26.36817 | 25509 ft | 450 kts | 336° |
| 2026-05-04 20:18 | 36.80591 | 26.35152 | 25766 ft | 450 kts | 336° |
| 2026-05-04 20:19 | 36.83385 | 26.33509 | 26079 ft | 449 kts | 336° |
| 2026-05-04 20:19 | 36.86217 | 26.31844 | 26410 ft | 448 kts | 336° |
| 2026-05-04 20:19 | 36.89045 | 26.30179 | 26692 ft | 448 kts | 336° |
| 2026-05-04 20:19 | 36.91869 | 26.28516 | 26962 ft | 449 kts | 336° |
| 2026-05-04 20:20 | 36.94694 | 26.26853 | 27263 ft | 448 kts | 336° |
| 2026-05-04 20:20 | 36.97515 | 26.25191 | 27546 ft | 448 kts | 336° |
| 2026-05-04 20:20 | 37.00338 | 26.23509 | 27758 ft | 450 kts | 336° |
| 2026-05-04 20:20 | 37.03166 | 26.21792 | 27951 ft | 453 kts | 336° |
| 2026-05-04 20:21 | 37.06000 | 26.20057 | 28252 ft | 452 kts | 336° |
| 2026-05-04 20:21 | 37.08812 | 26.18330 | 28605 ft | 450 kts | 336° |
| 2026-05-04 20:21 | 37.14414 | 26.14892 | 29192 ft | 451 kts | 336° |
| 2026-05-04 20:22 | 37.17232 | 26.13164 | 29478 ft | 451 kts | 336° |
| 2026-05-04 20:22 | 37.20055 | 26.11433 | 29787 ft | 450 kts | 336° |
| 2026-05-04 20:22 | 37.22868 | 26.09707 | 30097 ft | 450 kts | 336° |
| 2026-05-04 20:22 | 37.25680 | 26.07980 | 30363 ft | 449 kts | 336° |
| 2026-05-04 20:23 | 37.28483 | 26.06258 | 30748 ft | 445 kts | 336° |
| 2026-05-04 20:23 | 37.31260 | 26.04549 | 31032 ft | 444 kts | 336° |
| 2026-05-04 20:23 | 37.33100 | 26.03417 | 31194 ft | 444 kts | 336° |
| 2026-05-04 20:23 | 37.35878 | 26.01707 | 31396 ft | 445 kts | 336° |
| 2026-05-04 20:24 | 37.38659 | 25.99993 | 31603 ft | 445 kts | 336° |
| 2026-05-04 20:24 | 37.41439 | 25.98278 | 31850 ft | 444 kts | 336° |
| 2026-05-04 20:24 | 37.44217 | 25.96562 | 32081 ft | 444 kts | 336° |
| 2026-05-04 20:24 | 37.46999 | 25.94842 | 32036 ft | 446 kts | 335° |
| 2026-05-04 20:25 | 37.52588 | 25.91381 | 32068 ft | 449 kts | 335° |
| 2026-05-04 20:25 | 37.58199 | 25.87903 | 32096 ft | 449 kts | 335° |
| 2026-05-04 20:26 | 37.63579 | 25.83862 | 32091 ft | 451 kts | 328° |
| 2026-05-04 20:26 | 37.68772 | 25.79485 | 32085 ft | 451 kts | 328° |
| 2026-05-04 20:27 | 37.73997 | 25.75080 | 32085 ft | 451 kts | 328° |
| 2026-05-04 20:27 | 37.79235 | 25.70714 | 32085 ft | 451 kts | 328° |
| 2026-05-04 20:28 | 37.84484 | 25.66361 | 32075 ft | 450 kts | 328° |
| 2026-05-04 20:28 | 37.89729 | 25.62009 | 32077 ft | 450 kts | 328° |
| 2026-05-04 20:29 | 37.94963 | 25.57658 | 32081 ft | 450 kts | 328° |
| 2026-05-04 20:29 | 38.00194 | 25.53300 | 32083 ft | 450 kts | 328° |
| 2026-05-04 20:30 | 38.05424 | 25.48934 | 32084 ft | 450 kts | 328° |
| 2026-05-04 20:30 | 38.10627 | 25.44584 | 32088 ft | 450 kts | 328° |
| 2026-05-04 20:31 | 38.15868 | 25.40194 | 32088 ft | 451 kts | 328° |
| 2026-05-04 20:31 | 38.21105 | 25.35800 | 32078 ft | 451 kts | 328° |
| 2026-05-04 20:32 | 38.26343 | 25.31397 | 32077 ft | 451 kts | 328° |
| 2026-05-04 20:32 | 38.31579 | 25.26989 | 32069 ft | 451 kts | 327° |
| 2026-05-04 20:33 | 38.36818 | 25.22570 | 32087 ft | 452 kts | 327° |
| 2026-05-04 20:33 | 38.42067 | 25.18135 | 32080 ft | 452 kts | 327° |
| 2026-05-04 20:34 | 38.47321 | 25.13687 | 32083 ft | 453 kts | 327° |
| 2026-05-04 20:34 | 38.52545 | 25.09257 | 32082 ft | 453 kts | 327° |
| 2026-05-04 20:35 | 38.57798 | 25.04793 | 32075 ft | 454 kts | 327° |
| 2026-05-04 20:35 | 38.63062 | 25.00313 | 32069 ft | 454 kts | 327° |
| 2026-05-04 20:36 | 38.68323 | 24.95827 | 32081 ft | 455 kts | 327° |
| 2026-05-04 20:36 | 38.73589 | 24.91328 | 32079 ft | 455 kts | 327° |
| 2026-05-04 20:37 | 38.78858 | 24.86816 | 32077 ft | 456 kts | 327° |
| 2026-05-04 20:37 | 38.84131 | 24.82296 | 32076 ft | 456 kts | 327° |
| 2026-05-04 20:38 | 38.89411 | 24.77870 | 32075 ft | 456 kts | 328° |
| 2026-05-04 20:38 | 38.94767 | 24.73487 | 32076 ft | 457 kts | 328° |
| 2026-05-04 20:39 | 39.00158 | 24.69062 | 32074 ft | 457 kts | 328° |
| 2026-05-04 20:39 | 39.05472 | 24.64673 | 32074 ft | 457 kts | 328° |
| 2026-05-04 20:40 | 39.10822 | 24.60237 | 32074 ft | 457 kts | 328° |
| 2026-05-04 20:40 | 39.16167 | 24.55795 | 32076 ft | 456 kts | 328° |
| 2026-05-04 20:41 | 39.21504 | 24.51352 | 32062 ft | 456 kts | 328° |
| 2026-05-04 20:41 | 39.26800 | 24.46936 | 32071 ft | 456 kts | 328° |
| 2026-05-04 20:42 | 39.32122 | 24.42490 | 32070 ft | 455 kts | 328° |
| 2026-05-04 20:42 | 39.37441 | 24.38039 | 32056 ft | 455 kts | 328° |
| 2026-05-04 20:43 | 39.42763 | 24.33576 | 32071 ft | 455 kts | 328° |
| 2026-05-04 20:43 | 39.48079 | 24.29111 | 32068 ft | 456 kts | 328° |
| 2026-05-04 20:44 | 39.53397 | 24.24635 | 32065 ft | 456 kts | 328° |
| 2026-05-04 20:44 | 39.58724 | 24.20143 | 32071 ft | 456 kts | 328° |
| 2026-05-04 20:45 | 39.64009 | 24.15679 | 32069 ft | 456 kts | 328° |
| 2026-05-04 20:45 | 39.69322 | 24.11182 | 32065 ft | 455 kts | 328° |
| 2026-05-04 20:46 | 39.74629 | 24.06683 | 32062 ft | 455 kts | 327° |
| 2026-05-04 20:46 | 39.79941 | 24.02170 | 32059 ft | 455 kts | 327° |
| 2026-05-04 20:47 | 39.85249 | 23.97653 | 32072 ft | 455 kts | 327° |
| 2026-05-04 20:47 | 39.90555 | 23.93129 | 32069 ft | 456 kts | 327° |
| 2026-05-04 20:48 | 39.95834 | 23.88620 | 32066 ft | 456 kts | 327° |
| 2026-05-04 20:48 | 40.01146 | 23.84073 | 32066 ft | 457 kts | 327° |
| 2026-05-04 20:49 | 40.06468 | 23.79510 | 32064 ft | 457 kts | 327° |
| 2026-05-04 20:49 | 40.11787 | 23.74939 | 32059 ft | 457 kts | 327° |
| 2026-05-04 20:50 | 40.17100 | 23.70366 | 32066 ft | 457 kts | 327° |
| 2026-05-04 20:50 | 40.22407 | 23.65790 | 32055 ft | 457 kts | 327° |
| 2026-05-04 20:51 | 40.27682 | 23.61232 | 32064 ft | 457 kts | 327° |
| 2026-05-04 20:51 | 40.32988 | 23.56638 | 32070 ft | 457 kts | 327° |
| 2026-05-04 20:52 | 40.38298 | 23.52033 | 32054 ft | 457 kts | 327° |
| 2026-05-04 20:52 | 40.43598 | 23.47427 | 32070 ft | 457 kts | 327° |
| 2026-05-04 20:53 | 40.48903 | 23.42808 | 32050 ft | 457 kts | 327° |
| 2026-05-04 20:53 | 40.54202 | 23.38185 | 32060 ft | 457 kts | 327° |
| 2026-05-04 20:54 | 40.59494 | 23.33559 | 32084 ft | 456 kts | 326° |
| 2026-05-04 20:54 | 40.64747 | 23.28959 | 32064 ft | 456 kts | 326° |
| 2026-05-04 20:55 | 40.70032 | 23.24321 | 32068 ft | 455 kts | 326° |
| 2026-05-04 20:55 | 40.75312 | 23.19680 | 32062 ft | 455 kts | 326° |
| 2026-05-04 20:56 | 40.80585 | 23.15035 | 32061 ft | 455 kts | 326° |
| 2026-05-04 20:56 | 40.85850 | 23.10388 | 32061 ft | 456 kts | 326° |
| 2026-05-04 20:57 | 40.91124 | 23.05724 | 32058 ft | 456 kts | 326° |
| 2026-05-04 20:57 | 40.96410 | 23.01040 | 32058 ft | 457 kts | 326° |
| 2026-05-04 20:58 | 41.01661 | 22.96377 | 32065 ft | 458 kts | 326° |
| 2026-05-04 20:58 | 41.06963 | 22.91659 | 32062 ft | 458 kts | 326° |
| 2026-05-04 20:59 | 41.12250 | 22.86945 | 32062 ft | 458 kts | 326° |
| 2026-05-04 20:59 | 41.17541 | 22.82216 | 32070 ft | 458 kts | 326° |
| 2026-05-04 21:00 | 41.22823 | 22.77483 | 32059 ft | 457 kts | 324° |
| 2026-05-04 21:00 | 41.27391 | 22.71744 | 32076 ft | 455 kts | 310° |
| 2026-05-04 21:01 | 41.31382 | 22.65203 | 32073 ft | 455 kts | 309° |
| 2026-05-04 21:01 | 41.35369 | 22.58654 | 32084 ft | 455 kts | 309° |
| 2026-05-04 21:02 | 41.39373 | 22.52137 | 32086 ft | 454 kts | 309° |
| 2026-05-04 21:02 | 41.43382 | 22.45631 | 32082 ft | 454 kts | 310° |
| 2026-05-04 21:03 | 41.47386 | 22.39125 | 32092 ft | 453 kts | 310° |
| 2026-05-04 21:03 | 41.51373 | 22.32631 | 32105 ft | 452 kts | 310° |
| 2026-05-04 21:04 | 41.55349 | 22.26139 | 32096 ft | 452 kts | 310° |
| 2026-05-04 21:04 | 41.59295 | 22.19683 | 32099 ft | 451 kts | 310° |
| 2026-05-04 21:05 | 41.63287 | 22.13136 | 32097 ft | 451 kts | 310° |
| 2026-05-04 21:05 | 41.67217 | 22.06675 | 32090 ft | 449 kts | 310° |
| 2026-05-04 21:06 | 41.71153 | 22.00192 | 32100 ft | 448 kts | 310° |
| 2026-05-04 21:06 | 41.75077 | 21.93715 | 32101 ft | 447 kts | 310° |
| 2026-05-04 21:07 | 41.78995 | 21.87233 | 32101 ft | 447 kts | 310° |
| 2026-05-04 21:07 | 41.82905 | 21.80750 | 32110 ft | 446 kts | 310° |
| 2026-05-04 21:08 | 41.86777 | 21.74312 | 32108 ft | 444 kts | 311° |
| 2026-05-04 21:08 | 41.90649 | 21.67865 | 32106 ft | 443 kts | 311° |
| 2026-05-04 21:09 | 41.94719 | 21.61701 | 32097 ft | 439 kts | 322° |
| 2026-05-04 21:09 | 41.99547 | 21.56717 | 32106 ft | 437 kts | 324° |
| 2026-05-04 21:10 | 42.03572 | 21.52602 | 32118 ft | 437 kts | 324° |
| 2026-05-04 21:10 | 42.09165 | 21.46772 | 32119 ft | 437 kts | 323° |
| 2026-05-04 21:11 | 42.13165 | 21.42578 | 32117 ft | 438 kts | 323° |
| 2026-05-04 21:11 | 42.17699 | 21.37076 | 32129 ft | 441 kts | 313° |
| 2026-05-04 21:12 | 42.21658 | 21.30741 | 32145 ft | 442 kts | 312° |
| 2026-05-04 21:12 | 42.25617 | 21.24370 | 32133 ft | 443 kts | 312° |
| 2026-05-04 21:13 | 42.29581 | 21.18035 | 32140 ft | 444 kts | 313° |
| 2026-05-04 21:13 | 42.33581 | 21.11657 | 32131 ft | 444 kts | 313° |
| 2026-05-04 21:14 | 42.37569 | 21.05293 | 32139 ft | 443 kts | 313° |
| 2026-05-04 21:14 | 42.41546 | 20.98931 | 32142 ft | 443 kts | 313° |
| 2026-05-04 21:15 | 42.45495 | 20.92600 | 32134 ft | 442 kts | 313° |
| 2026-05-04 21:15 | 42.49458 | 20.86231 | 32137 ft | 442 kts | 313° |
| 2026-05-04 21:16 | 42.53420 | 20.79852 | 32124 ft | 441 kts | 312° |
| 2026-05-04 21:16 | 42.57365 | 20.73484 | 32133 ft | 440 kts | 312° |
| 2026-05-04 21:17 | 42.61298 | 20.67123 | 32141 ft | 439 kts | 312° |
| 2026-05-04 21:17 | 42.65221 | 20.60764 | 32133 ft | 439 kts | 312° |
| 2026-05-04 21:18 | 42.69124 | 20.54423 | 32140 ft | 439 kts | 312° |
| 2026-05-04 21:18 | 42.73040 | 20.48047 | 32138 ft | 439 kts | 312° |
| 2026-05-04 21:19 | 42.76948 | 20.41667 | 32133 ft | 439 kts | 312° |
| 2026-05-04 21:19 | 42.80859 | 20.35273 | 32147 ft | 439 kts | 312° |
| 2026-05-04 21:20 | 42.84985 | 20.29176 | 32144 ft | 437 kts | 322° |
| 2026-05-04 21:20 | 42.89679 | 20.23980 | 32144 ft | 438 kts | 323° |
| 2026-05-04 21:21 | 42.94427 | 20.18756 | 32155 ft | 438 kts | 322° |
| 2026-05-04 21:21 | 42.99156 | 20.13490 | 32127 ft | 438 kts | 322° |
| 2026-05-04 21:22 | 43.03875 | 20.08192 | 32156 ft | 439 kts | 322° |
| 2026-05-04 21:22 | 43.08589 | 20.02881 | 32141 ft | 439 kts | 322° |
| 2026-05-04 21:23 | 43.13274 | 19.97591 | 32136 ft | 439 kts | 322° |
| 2026-05-04 21:23 | 43.17988 | 19.92259 | 32146 ft | 439 kts | 322° |
| 2026-05-04 21:24 | 43.22701 | 19.86918 | 32147 ft | 439 kts | 322° |
| 2026-05-04 21:24 | 43.27414 | 19.81566 | 32144 ft | 439 kts | 322° |
| 2026-05-04 21:25 | 43.32088 | 19.76247 | 32136 ft | 439 kts | 321° |
| 2026-05-04 21:25 | 43.36795 | 19.70879 | 32129 ft | 440 kts | 321° |
| 2026-05-04 21:26 | 43.41507 | 19.65495 | 32122 ft | 440 kts | 321° |
| 2026-05-04 21:26 | 43.46218 | 19.60099 | 32115 ft | 440 kts | 321° |
| 2026-05-04 21:27 | 43.50902 | 19.54724 | 32112 ft | 440 kts | 321° |
| 2026-05-04 21:27 | 43.55612 | 19.49307 | 32099 ft | 441 kts | 321° |
| 2026-05-04 21:28 | 43.60318 | 19.43882 | 32103 ft | 441 kts | 321° |
| 2026-05-04 21:28 | 43.65028 | 19.38442 | 32087 ft | 441 kts | 321° |
| 2026-05-04 21:29 | 43.69733 | 19.32993 | 32078 ft | 441 kts | 321° |
| 2026-05-04 21:29 | 43.74430 | 19.27543 | 32081 ft | 441 kts | 321° |
| 2026-05-04 21:30 | 43.79053 | 19.22051 | 32080 ft | 441 kts | 319° |
| 2026-05-04 21:30 | 43.83519 | 19.16221 | 32078 ft | 441 kts | 317° |
| 2026-05-04 21:31 | 43.90176 | 19.07383 | 32059 ft | 442 kts | 317° |
| 2026-05-04 21:32 | 43.94631 | 19.01508 | 32067 ft | 442 kts | 317° |
| 2026-05-04 21:32 | 43.99095 | 18.95625 | 32070 ft | 442 kts | 317° |
| 2026-05-04 21:33 | 44.03565 | 18.89726 | 32062 ft | 443 kts | 317° |
| 2026-05-04 21:33 | 44.08003 | 18.83853 | 32069 ft | 443 kts | 317° |
| 2026-05-04 21:34 | 44.12466 | 18.77932 | 32061 ft | 443 kts | 316° |
| 2026-05-04 21:34 | 44.16928 | 18.72000 | 32058 ft | 443 kts | 316° |
| 2026-05-04 21:35 | 44.21384 | 18.66063 | 32058 ft | 443 kts | 316° |
| 2026-05-04 21:35 | 44.25837 | 18.60113 | 32054 ft | 443 kts | 316° |
| 2026-05-04 21:36 | 44.30284 | 18.54143 | 32053 ft | 444 kts | 315° |
| 2026-05-04 21:36 | 44.34385 | 18.47696 | 32057 ft | 444 kts | 311° |
| 2026-05-04 21:37 | 44.38326 | 18.41114 | 32049 ft | 444 kts | 310° |
| 2026-05-04 21:37 | 44.42302 | 18.34498 | 32048 ft | 444 kts | 311° |
| 2026-05-04 21:38 | 44.46303 | 18.27896 | 32029 ft | 444 kts | 311° |
| 2026-05-04 21:38 | 44.50309 | 18.21298 | 32044 ft | 444 kts | 311° |
| 2026-05-04 21:39 | 44.54315 | 18.14689 | 32032 ft | 444 kts | 311° |
| 2026-05-04 21:39 | 44.58297 | 18.08103 | 32034 ft | 445 kts | 311° |
| 2026-05-04 21:40 | 44.62295 | 18.01472 | 32034 ft | 445 kts | 310° |
| 2026-05-04 21:40 | 44.66291 | 17.94830 | 32029 ft | 445 kts | 310° |
| 2026-05-04 21:41 | 44.70285 | 17.88175 | 32032 ft | 445 kts | 310° |
| 2026-05-04 21:41 | 44.74282 | 17.81500 | 32030 ft | 446 kts | 310° |
| 2026-05-04 21:42 | 44.78272 | 17.74820 | 32035 ft | 446 kts | 310° |
| 2026-05-04 21:42 | 44.82243 | 17.68156 | 32032 ft | 447 kts | 310° |
| 2026-05-04 21:43 | 44.86240 | 17.61433 | 32042 ft | 447 kts | 310° |
| 2026-05-04 21:43 | 44.90234 | 17.54699 | 32043 ft | 448 kts | 310° |
| 2026-05-04 21:44 | 44.94231 | 17.47943 | 32051 ft | 448 kts | 310° |
| 2026-05-04 21:44 | 44.98219 | 17.41186 | 32049 ft | 448 kts | 309° |
| 2026-05-04 21:45 | 45.02190 | 17.34440 | 32025 ft | 448 kts | 309° |
| 2026-05-04 21:45 | 45.06172 | 17.27659 | 32031 ft | 449 kts | 309° |
| 2026-05-04 21:46 | 45.10163 | 17.20846 | 32025 ft | 449 kts | 309° |
| 2026-05-04 21:46 | 45.14282 | 17.14175 | 32014 ft | 450 kts | 317° |
| 2026-05-04 21:47 | 45.19150 | 17.08572 | 32023 ft | 451 kts | 321° |
| 2026-05-04 21:47 | 45.24044 | 17.03084 | 32026 ft | 452 kts | 321° |
| 2026-05-04 21:48 | 45.28958 | 16.97499 | 32025 ft | 452 kts | 320° |
| 2026-05-04 21:48 | 45.33851 | 16.91880 | 32024 ft | 453 kts | 320° |
| 2026-05-04 21:49 | 45.38747 | 16.86231 | 32021 ft | 454 kts | 320° |
| 2026-05-04 21:49 | 45.43661 | 16.80548 | 32029 ft | 454 kts | 320° |
| 2026-05-04 21:50 | 45.48571 | 16.74856 | 32024 ft | 455 kts | 320° |
| 2026-05-04 21:50 | 45.53486 | 16.69148 | 32028 ft | 456 kts | 320° |
| 2026-05-04 21:51 | 45.58400 | 16.63427 | 32022 ft | 456 kts | 320° |
| 2026-05-04 21:51 | 45.63315 | 16.57692 | 32022 ft | 456 kts | 319° |
| 2026-05-04 21:52 | 45.68221 | 16.51954 | 32019 ft | 456 kts | 319° |
| 2026-05-04 21:52 | 45.73093 | 16.46242 | 32030 ft | 456 kts | 319° |
| 2026-05-04 21:53 | 45.78004 | 16.40471 | 32030 ft | 456 kts | 319° |
| 2026-05-04 21:53 | 45.82902 | 16.34701 | 32027 ft | 456 kts | 319° |
| 2026-05-04 21:54 | 45.87806 | 16.28911 | 32026 ft | 456 kts | 319° |
| 2026-05-04 21:54 | 45.92700 | 16.23119 | 32026 ft | 456 kts | 319° |
| 2026-05-04 21:55 | 45.97592 | 16.17315 | 32027 ft | 456 kts | 319° |
| 2026-05-04 21:55 | 46.02481 | 16.11501 | 32024 ft | 456 kts | 319° |
| 2026-05-04 21:56 | 46.07362 | 16.05682 | 32026 ft | 456 kts | 319° |
| 2026-05-04 21:56 | 46.12222 | 15.99875 | 32017 ft | 457 kts | 319° |
| 2026-05-04 21:57 | 46.17126 | 15.94000 | 32022 ft | 458 kts | 319° |
| 2026-05-04 21:57 | 46.22022 | 15.88118 | 32011 ft | 458 kts | 319° |
| 2026-05-04 21:58 | 46.26918 | 15.82212 | 32007 ft | 458 kts | 317° |
| 2026-05-04 21:58 | 46.31631 | 15.75990 | 32003 ft | 458 kts | 315° |
| 2026-05-04 21:59 | 46.36243 | 15.69620 | 32004 ft | 458 kts | 315° |
| 2026-05-04 21:59 | 46.40830 | 15.63288 | 32001 ft | 459 kts | 315° |
| 2026-05-04 22:00 | 46.45466 | 15.56925 | 32000 ft | 459 kts | 315° |
| 2026-05-04 22:00 | 46.50107 | 15.50562 | 32000 ft | 459 kts | 315° |
| 2026-05-04 22:01 | 46.54743 | 15.44195 | 32010 ft | 458 kts | 315° |
| 2026-05-04 22:01 | 46.59375 | 15.37816 | 31996 ft | 459 kts | 315° |
| 2026-05-04 22:02 | 46.63225 | 15.32501 | 31999 ft | 459 kts | 315° |
| 2026-05-04 22:02 | 46.67859 | 15.26087 | 31999 ft | 459 kts | 315° |
| 2026-05-04 22:03 | 46.72492 | 15.19660 | 31993 ft | 459 kts | 315° |
| 2026-05-04 22:03 | 46.77118 | 15.13228 | 31983 ft | 459 kts | 315° |
| 2026-05-04 22:04 | 46.81731 | 15.06798 | 32009 ft | 458 kts | 314° |
| 2026-05-04 22:04 | 46.86304 | 15.00407 | 32003 ft | 458 kts | 313° |
| 2026-05-04 22:05 | 46.90897 | 14.93968 | 31997 ft | 457 kts | 314° |
| 2026-05-04 22:05 | 46.95475 | 14.87538 | 32013 ft | 456 kts | 314° |
| 2026-05-04 22:06 | 47.00049 | 14.81099 | 32023 ft | 457 kts | 314° |
| 2026-05-04 22:06 | 47.04634 | 14.74625 | 32024 ft | 458 kts | 314° |
| 2026-05-04 22:07 | 47.09231 | 14.68118 | 32022 ft | 459 kts | 314° |
| 2026-05-04 22:07 | 47.13827 | 14.61597 | 32003 ft | 459 kts | 314° |
| 2026-05-04 22:08 | 47.18419 | 14.55066 | 32004 ft | 459 kts | 314° |
| 2026-05-04 22:08 | 47.23008 | 14.48522 | 32015 ft | 459 kts | 313° |
| 2026-05-04 22:09 | 47.27563 | 14.42009 | 32007 ft | 459 kts | 313° |
| 2026-05-04 22:09 | 47.32146 | 14.35440 | 32007 ft | 459 kts | 314° |
| 2026-05-04 22:10 | 47.36721 | 14.28865 | 32010 ft | 458 kts | 314° |
| 2026-05-04 22:10 | 47.41286 | 14.22290 | 32003 ft | 458 kts | 313° |
| 2026-05-04 22:11 | 47.45849 | 14.15699 | 31998 ft | 458 kts | 313° |
| 2026-05-04 22:11 | 47.50385 | 14.09129 | 31981 ft | 459 kts | 313° |
| 2026-05-04 22:12 | 47.54940 | 14.02517 | 31967 ft | 458 kts | 313° |
| 2026-05-04 22:12 | 47.59487 | 13.95899 | 31970 ft | 458 kts | 313° |
| 2026-05-04 22:13 | 47.64035 | 13.89261 | 31960 ft | 459 kts | 313° |
| 2026-05-04 22:13 | 47.68592 | 13.82594 | 31950 ft | 460 kts | 313° |
| 2026-05-04 22:14 | 47.73150 | 13.75908 | 31945 ft | 461 kts | 313° |
| 2026-05-04 22:14 | 47.77710 | 13.69201 | 31934 ft | 461 kts | 313° |
| 2026-05-04 22:15 | 47.82241 | 13.62519 | 31930 ft | 461 kts | 313° |
| 2026-05-04 22:15 | 47.86796 | 13.55785 | 31931 ft | 462 kts | 313° |
| 2026-05-04 22:16 | 47.91354 | 13.49027 | 31924 ft | 464 kts | 313° |
| 2026-05-04 22:16 | 47.95926 | 13.42232 | 31905 ft | 465 kts | 313° |
| 2026-05-04 22:17 | 48.00510 | 13.35400 | 31908 ft | 465 kts | 313° |
| 2026-05-04 22:17 | 48.05071 | 13.28584 | 31910 ft | 466 kts | 313° |
| 2026-05-04 22:18 | 48.09624 | 13.21761 | 31903 ft | 467 kts | 313° |
| 2026-05-04 22:18 | 48.14208 | 13.14873 | 31900 ft | 467 kts | 313° |
| 2026-05-04 22:19 | 48.18790 | 13.07968 | 31905 ft | 466 kts | 313° |
| 2026-05-04 22:19 | 48.23385 | 13.01088 | 31896 ft | 467 kts | 315° |
| 2026-05-04 22:20 | 48.28445 | 12.94941 | 31930 ft | 469 kts | 320° |
| 2026-05-04 22:20 | 48.33615 | 12.89073 | 31902 ft | 469 kts | 321° |
| 2026-05-04 22:21 | 48.38796 | 12.83116 | 31898 ft | 468 kts | 320° |
| 2026-05-04 22:21 | 48.43929 | 12.77110 | 31897 ft | 466 kts | 320° |
| 2026-05-04 22:22 | 48.49033 | 12.71086 | 31899 ft | 465 kts | 320° |
| 2026-05-04 22:22 | 48.54128 | 12.65054 | 31897 ft | 465 kts | 320° |
| 2026-05-04 22:23 | 48.59190 | 12.59047 | 31900 ft | 465 kts | 320° |
| 2026-05-04 22:23 | 48.64277 | 12.52998 | 31908 ft | 465 kts | 319° |
| 2026-05-04 22:24 | 48.69364 | 12.46933 | 31903 ft | 466 kts | 319° |
| 2026-05-04 22:24 | 48.74456 | 12.40845 | 31904 ft | 466 kts | 319° |
| 2026-05-04 22:25 | 48.79548 | 12.34741 | 31902 ft | 467 kts | 319° |
| 2026-05-04 22:25 | 48.84639 | 12.28624 | 31911 ft | 467 kts | 319° |
| 2026-05-04 22:26 | 48.89737 | 12.22480 | 31910 ft | 467 kts | 319° |
| 2026-05-04 22:26 | 48.94794 | 12.16370 | 31903 ft | 467 kts | 319° |
| 2026-05-04 22:27 | 48.99887 | 12.10199 | 31910 ft | 467 kts | 319° |
| 2026-05-04 22:27 | 49.04964 | 12.04033 | 31917 ft | 467 kts | 319° |
| 2026-05-04 22:28 | 49.10043 | 11.97847 | 31932 ft | 467 kts | 319° |
| 2026-05-04 22:28 | 49.15125 | 11.91639 | 31933 ft | 468 kts | 319° |
| 2026-05-04 22:29 | 49.20181 | 11.85447 | 31926 ft | 469 kts | 319° |
| 2026-05-04 22:29 | 49.25273 | 11.79193 | 31906 ft | 469 kts | 319° |
| 2026-05-04 22:30 | 49.30369 | 11.72918 | 31904 ft | 469 kts | 319° |
| 2026-05-04 22:30 | 49.35459 | 11.66632 | 31914 ft | 469 kts | 318° |
| 2026-05-04 22:31 | 49.40520 | 11.60367 | 31933 ft | 469 kts | 318° |
| 2026-05-04 22:31 | 49.45595 | 11.54062 | 31918 ft | 469 kts | 318° |
| 2026-05-04 22:32 | 49.50678 | 11.47730 | 31923 ft | 469 kts | 318° |
| 2026-05-04 22:32 | 49.55741 | 11.41411 | 31931 ft | 468 kts | 317° |
| 2026-05-04 22:33 | 49.60652 | 11.34836 | 31944 ft | 467 kts | 314° |
| 2026-05-04 22:33 | 49.65429 | 11.28047 | 31956 ft | 467 kts | 314° |
| 2026-05-04 22:34 | 49.70177 | 11.21287 | 31931 ft | 466 kts | 314° |
| 2026-05-04 22:34 | 49.74952 | 11.14528 | 31937 ft | 465 kts | 314° |
| 2026-05-04 22:35 | 49.79732 | 11.07769 | 31943 ft | 465 kts | 314° |
| 2026-05-04 22:35 | 49.84500 | 11.01011 | 31952 ft | 464 kts | 314° |
| 2026-05-04 22:36 | 49.89265 | 10.94237 | 31952 ft | 464 kts | 314° |
| 2026-05-04 22:36 | 49.94020 | 10.87456 | 31936 ft | 464 kts | 313° |
| 2026-05-04 22:37 | 49.98771 | 10.80662 | 31933 ft | 464 kts | 313° |
| 2026-05-04 22:37 | 50.03484 | 10.73902 | 31931 ft | 463 kts | 313° |
| 2026-05-04 22:38 | 50.08224 | 10.67085 | 31926 ft | 463 kts | 313° |
| 2026-05-04 22:38 | 50.12955 | 10.60262 | 31927 ft | 463 kts | 313° |
| 2026-05-04 22:39 | 50.17659 | 10.53458 | 31960 ft | 464 kts | 313° |
| 2026-05-04 22:39 | 50.22389 | 10.46595 | 31956 ft | 465 kts | 313° |
| 2026-05-04 22:40 | 50.27127 | 10.39700 | 31947 ft | 465 kts | 313° |
| 2026-05-04 22:40 | 50.31871 | 10.32778 | 31942 ft | 466 kts | 313° |
| 2026-05-04 22:41 | 50.36536 | 10.25744 | 31946 ft | 463 kts | 308° |
| 2026-05-04 22:41 | 50.40753 | 10.18122 | 31956 ft | 463 kts | 305° |
| 2026-05-04 22:42 | 50.44853 | 10.10410 | 31957 ft | 463 kts | 305° |
| 2026-05-04 22:42 | 50.49007 | 10.02673 | 31958 ft | 463 kts | 306° |
| 2026-05-04 22:43 | 50.53182 | 9.94960 | 31947 ft | 463 kts | 306° |
| 2026-05-04 22:43 | 50.57357 | 9.87254 | 31958 ft | 462 kts | 306° |
| 2026-05-04 22:44 | 50.61501 | 9.79580 | 31973 ft | 462 kts | 306° |
| 2026-05-04 22:44 | 50.65662 | 9.71848 | 31959 ft | 462 kts | 306° |
| 2026-05-04 22:45 | 50.69800 | 9.64136 | 31958 ft | 462 kts | 306° |
| 2026-05-04 22:45 | 50.76019 | 9.52498 | 31960 ft | 462 kts | 305° |
| 2026-05-04 22:46 | 50.80157 | 9.44728 | 31967 ft | 462 kts | 305° |
| 2026-05-04 22:46 | 50.84295 | 9.36932 | 31974 ft | 463 kts | 305° |
| 2026-05-04 22:47 | 50.88445 | 9.29089 | 31972 ft | 465 kts | 305° |
| 2026-05-04 22:47 | 50.92590 | 9.21231 | 31972 ft | 466 kts | 305° |
| 2026-05-04 22:48 | 50.96747 | 9.13328 | 31967 ft | 467 kts | 305° |
| 2026-05-04 22:48 | 51.00901 | 9.05404 | 31980 ft | 467 kts | 305° |
| 2026-05-04 22:49 | 51.05028 | 8.97508 | 31972 ft | 466 kts | 305° |
| 2026-05-04 22:49 | 51.09168 | 8.89559 | 31965 ft | 466 kts | 305° |
| 2026-05-04 22:50 | 51.13301 | 8.81616 | 31963 ft | 466 kts | 306° |
| 2026-05-04 22:50 | 51.17728 | 8.74011 | 31965 ft | 469 kts | 310° |
| 2026-05-04 22:51 | 51.22319 | 8.66624 | 31955 ft | 469 kts | 310° |
| 2026-05-04 22:51 | 51.26124 | 8.60467 | 31968 ft | 468 kts | 309° |
| 2026-05-04 22:52 | 51.30662 | 8.53016 | 31966 ft | 467 kts | 309° |
| 2026-05-04 22:52 | 51.35175 | 8.45535 | 31953 ft | 467 kts | 309° |
| 2026-05-04 22:53 | 51.39675 | 8.38043 | 31949 ft | 467 kts | 309° |
| 2026-05-04 22:53 | 51.44171 | 8.30537 | 31945 ft | 466 kts | 309° |
| 2026-05-04 22:54 | 51.48654 | 8.23033 | 31950 ft | 466 kts | 309° |
| 2026-05-04 22:54 | 51.53113 | 8.15545 | 31967 ft | 467 kts | 309° |
| 2026-05-04 22:55 | 51.57602 | 8.07986 | 31942 ft | 467 kts | 309° |
| 2026-05-04 22:55 | 51.62077 | 8.00428 | 31939 ft | 467 kts | 309° |
| 2026-05-04 22:56 | 51.66551 | 7.92847 | 31942 ft | 467 kts | 309° |
| 2026-05-04 22:56 | 51.71021 | 7.85251 | 31938 ft | 467 kts | 309° |
| 2026-05-04 22:57 | 51.75486 | 7.77639 | 31950 ft | 467 kts | 309° |
| 2026-05-04 22:57 | 51.79945 | 7.70013 | 31946 ft | 467 kts | 308° |
| 2026-05-04 22:58 | 51.84415 | 7.62352 | 31605 ft | 472 kts | 309° |
| 2026-05-04 22:58 | 51.86663 | 7.58495 | 31219 ft | 470 kts | 309° |
| 2026-05-04 22:58 | 51.88909 | 7.54631 | 30843 ft | 471 kts | 309° |
| 2026-05-04 22:59 | 51.91123 | 7.50814 | 30485 ft | 473 kts | 309° |
| 2026-05-04 22:59 | 51.93379 | 7.46914 | 30120 ft | 475 kts | 309° |
| 2026-05-04 22:59 | 51.95636 | 7.43006 | 29711 ft | 477 kts | 309° |
| 2026-05-04 22:59 | 51.97909 | 7.39063 | 29289 ft | 478 kts | 309° |
| 2026-05-04 23:00 | 52.00181 | 7.35117 | 28871 ft | 479 kts | 310° |
| 2026-05-04 23:00 | 52.02468 | 7.31150 | 28378 ft | 480 kts | 310° |
| 2026-05-04 23:00 | 52.04748 | 7.27176 | 27894 ft | 481 kts | 310° |
| 2026-05-04 23:00 | 52.07027 | 7.23195 | 27424 ft | 481 kts | 310° |
| 2026-05-04 23:01 | 52.09311 | 7.19201 | 26954 ft | 481 kts | 310° |
| 2026-05-04 23:01 | 52.11592 | 7.15206 | 26494 ft | 481 kts | 310° |
| 2026-05-04 23:01 | 52.13864 | 7.11221 | 26042 ft | 480 kts | 310° |
| 2026-05-04 23:01 | 52.16134 | 7.07234 | 25595 ft | 480 kts | 310° |
| 2026-05-04 23:02 | 52.18404 | 7.03241 | 25161 ft | 479 kts | 310° |
| 2026-05-04 23:02 | 52.20664 | 6.99262 | 24738 ft | 478 kts | 310° |
| 2026-05-04 23:02 | 52.22855 | 6.95298 | 24303 ft | 475 kts | 308° |
| 2026-05-04 23:02 | 52.24958 | 6.91141 | 23886 ft | 472 kts | 307° |
| 2026-05-04 23:03 | 52.26990 | 6.86967 | 23465 ft | 468 kts | 306° |
| 2026-05-04 23:03 | 52.29008 | 6.82809 | 22971 ft | 464 kts | 307° |
| 2026-05-04 23:03 | 52.31021 | 6.78721 | 22484 ft | 460 kts | 307° |
| 2026-05-04 23:03 | 52.33027 | 6.74680 | 22006 ft | 456 kts | 308° |
| 2026-05-04 23:04 | 52.35031 | 6.70656 | 21537 ft | 453 kts | 307° |
| 2026-05-04 23:04 | 52.37009 | 6.66678 | 21072 ft | 449 kts | 308° |
| 2026-05-04 23:04 | 52.38965 | 6.62725 | 20615 ft | 445 kts | 308° |
| 2026-05-04 23:04 | 52.40884 | 6.58851 | 20177 ft | 441 kts | 308° |
| 2026-05-04 23:05 | 52.42810 | 6.54959 | 19735 ft | 435 kts | 308° |
| 2026-05-04 23:05 | 52.44698 | 6.51129 | 19290 ft | 426 kts | 308° |
| 2026-05-04 23:05 | 52.46344 | 6.47181 | 18828 ft | 416 kts | 294° |
| 2026-05-04 23:05 | 52.47155 | 6.42696 | 18428 ft | 406 kts | 278° |
| 2026-05-04 23:06 | 52.47419 | 6.38118 | 17982 ft | 398 kts | 275° |
| 2026-05-04 23:06 | 52.47608 | 6.33620 | 17495 ft | 392 kts | 274° |
| 2026-05-04 23:06 | 52.47789 | 6.29225 | 17040 ft | 378 kts | 274° |
| 2026-05-04 23:06 | 52.47972 | 6.25061 | 16652 ft | 362 kts | 275° |
| 2026-05-04 23:07 | 52.48159 | 6.21023 | 16251 ft | 348 kts | 275° |
| 2026-05-04 23:07 | 52.48345 | 6.17133 | 15865 ft | 337 kts | 275° |
| 2026-05-04 23:07 | 52.48528 | 6.13358 | 15482 ft | 326 kts | 275° |
| 2026-05-04 23:07 | 52.48706 | 6.09696 | 15106 ft | 317 kts | 275° |
| 2026-05-04 23:08 | 52.48877 | 6.06139 | 14727 ft | 310 kts | 275° |
| 2026-05-04 23:08 | 52.49044 | 6.02655 | 14363 ft | 303 kts | 274° |
| 2026-05-04 23:08 | 52.49207 | 5.99222 | 14005 ft | 300 kts | 274° |
| 2026-05-04 23:08 | 52.49368 | 5.95818 | 13646 ft | 297 kts | 275° |
| 2026-05-04 23:09 | 52.49527 | 5.92446 | 13251 ft | 295 kts | 274° |
| 2026-05-04 23:09 | 52.49684 | 5.89104 | 12848 ft | 293 kts | 274° |
| 2026-05-04 23:09 | 52.49837 | 5.85783 | 12467 ft | 291 kts | 274° |
| 2026-05-04 23:09 | 52.49989 | 5.82485 | 12084 ft | 289 kts | 274° |
| 2026-05-04 23:10 | 52.50139 | 5.79193 | 11705 ft | 288 kts | 274° |
| 2026-05-04 23:10 | 52.50284 | 5.75967 | 11339 ft | 287 kts | 274° |
| 2026-05-04 23:10 | 52.50431 | 5.72683 | 10984 ft | 290 kts | 274° |
| 2026-05-04 23:10 | 52.50578 | 5.69371 | 10612 ft | 291 kts | 274° |
| 2026-05-04 23:11 | 52.50726 | 5.66054 | 10261 ft | 290 kts | 273° |
| 2026-05-04 23:11 | 52.50873 | 5.62760 | 10027 ft | 286 kts | 273° |
| 2026-05-04 23:11 | 52.51009 | 5.59555 | 9998 ft | 279 kts | 271° |
| 2026-05-04 23:11 | 52.50649 | 5.56454 | 10015 ft | 279 kts | 246° |
| 2026-05-04 23:12 | 52.49657 | 5.53722 | 9865 ft | 283 kts | 233° |
| 2026-05-04 23:12 | 52.48405 | 5.51174 | 9556 ft | 287 kts | 231° |
| 2026-05-04 23:12 | 52.47125 | 5.48678 | 9232 ft | 285 kts | 230° |
| 2026-05-04 23:12 | 52.45852 | 5.46196 | 8921 ft | 283 kts | 231° |
| 2026-05-04 23:13 | 52.44594 | 5.43727 | 8601 ft | 281 kts | 232° |
| 2026-05-04 23:13 | 52.43351 | 5.41272 | 8295 ft | 279 kts | 231° |
| 2026-05-04 23:13 | 52.42116 | 5.38824 | 7991 ft | 277 kts | 232° |
| 2026-05-04 23:13 | 52.40909 | 5.36425 | 7692 ft | 276 kts | 232° |
| 2026-05-04 23:14 | 52.39734 | 5.34087 | 7400 ft | 275 kts | 232° |
| 2026-05-04 23:14 | 52.38524 | 5.31675 | 7105 ft | 273 kts | 231° |
| 2026-05-04 23:14 | 52.37338 | 5.29333 | 7014 ft | 265 kts | 232° |
| 2026-05-04 23:14 | 52.36170 | 5.27026 | 7003 ft | 264 kts | 231° |
| 2026-05-04 23:15 | 52.35001 | 5.24704 | 6990 ft | 262 kts | 231° |
| 2026-05-04 23:15 | 52.33852 | 5.22418 | 6981 ft | 259 kts | 231° |
| 2026-05-04 23:15 | 52.32704 | 5.20155 | 6995 ft | 258 kts | 231° |
| 2026-05-04 23:15 | 52.31555 | 5.17872 | 6999 ft | 261 kts | 232° |
| 2026-05-04 23:16 | 52.30402 | 5.15578 | 6984 ft | 259 kts | 232° |
| 2026-05-04 23:16 | 52.29270 | 5.13339 | 6975 ft | 251 kts | 231° |
| 2026-05-04 23:16 | 52.28195 | 5.11213 | 6980 ft | 242 kts | 232° |
| 2026-05-04 23:16 | 52.27127 | 5.09103 | 6989 ft | 240 kts | 232° |
| 2026-05-04 23:17 | 52.26038 | 5.06950 | 6742 ft | 246 kts | 232° |
| 2026-05-04 23:17 | 52.24961 | 5.04832 | 6511 ft | 244 kts | 231° |
| 2026-05-04 23:17 | 52.23664 | 5.03038 | 6249 ft | 245 kts | 212° |
| 2026-05-04 23:17 | 52.22193 | 5.01671 | 6009 ft | 243 kts | 212° |
| 2026-05-04 23:18 | 52.20728 | 5.00296 | 5746 ft | 242 kts | 212° |
| 2026-05-04 23:18 | 52.19272 | 4.98910 | 5488 ft | 241 kts | 212° |
| 2026-05-04 23:18 | 52.17833 | 4.97525 | 5234 ft | 240 kts | 211° |
| 2026-05-04 23:18 | 52.16400 | 4.96136 | 4974 ft | 239 kts | 211° |
| 2026-05-04 23:19 | 52.14971 | 4.94751 | 4714 ft | 239 kts | 212° |
| 2026-05-04 23:19 | 52.13546 | 4.93367 | 4450 ft | 238 kts | 211° |
| 2026-05-04 23:19 | 52.12140 | 4.91954 | 4193 ft | 237 kts | 219° |
| 2026-05-04 23:19 | 52.11205 | 4.89850 | 3907 ft | 228 kts | 256° |
| 2026-05-04 23:20 | 52.11008 | 4.87363 | 3660 ft | 218 kts | 270° |
| 2026-05-04 23:20 | 52.11005 | 4.84956 | 3403 ft | 212 kts | 273° |
| 2026-05-04 23:20 | 52.11020 | 4.82580 | 3136 ft | 207 kts | 275° |
| 2026-05-04 23:20 | 52.11390 | 4.80410 | 2831 ft | 196 kts | 311° |
| 2026-05-04 23:21 | 52.12396 | 4.79055 | 2591 ft | 185 kts | 334° |
| 2026-05-04 23:21 | 52.13532 | 4.78074 | 2383 ft | 184 kts | 336° |
| 2026-05-04 23:21 | 52.14678 | 4.77135 | 2139 ft | 183 kts | 338° |
| 2026-05-04 23:21 | 52.15872 | 4.76492 | 2030 ft | 179 kts | 3° |
| 2026-05-04 23:22 | 52.17076 | 4.76635 | 2016 ft | 169 kts | 6° |
| 2026-05-04 23:22 | 52.18201 | 4.76727 | 1985 ft | 155 kts | 6° |
| 2026-05-04 23:22 | 52.19251 | 4.76819 | 1942 ft | 155 kts | 5° |
| 2026-05-04 23:22 | 52.20329 | 4.76918 | 1769 ft | 155 kts | 6° |
| 2026-05-04 23:23 | 52.21398 | 4.77018 | 1557 ft | 150 kts | 6° |
| 2026-05-04 23:23 | 52.22438 | 4.77114 | 1357 ft | 148 kts | 6° |
| 2026-05-04 23:23 | 52.23438 | 4.77207 | 1145 ft | 142 kts | 6° |
| 2026-05-04 23:23 | 52.24421 | 4.77299 | 940 ft | 143 kts | 6° |
| 2026-05-04 23:24 | 52.25438 | 4.77396 | 784 ft | 147 kts | 5° |
| 2026-05-04 23:24 | 52.26458 | 4.77483 | 604 ft | 147 kts | 5° |
| 2026-05-04 23:24 | 52.27469 | 4.77579 | 353 ft | 145 kts | 5° |
| 2026-05-04 23:24 | 52.28482 | 4.77669 | 155 ft | 144 kts | 4° |
| 2026-05-04 23:25 | 52.29462 | 4.77764 | 11 ft | 137 kts | 4° |
| 2026-05-04 23:25 | 52.30329 | 4.77850 | -1 ft | 110 kts | 3° |
| 2026-05-04 23:25 | 52.30975 | 4.77910 | -5 ft | 77 kts | 4° |
| 2026-05-04 23:25 | 52.31264 | 4.77936 | -2 ft | 14 kts | 4° |
| 2026-05-04 23:26 | 52.31337 | 4.77875 | -2 ft | 9 kts | 276° |
| 2026-05-04 23:26 | 52.31313 | 4.77799 | -2 ft | 5 kts | 230° |
| 2026-05-04 23:26 | 52.31304 | 4.77780 | -2 ft | 0 kts | 230° |
| 2026-05-04 23:26 | 52.31295 | 4.77763 | -2 ft | 8 kts | 232° |
| 2026-05-04 23:27 | 52.31278 | 4.77669 | -2 ft | 9 kts | 269° |
| 2026-05-04 23:27 | 52.31279 | 4.77570 | -2 ft | 9 kts | 260° |
| 2026-05-04 23:27 | 52.31238 | 4.77508 | -2 ft | 8 kts | 193° |
| 2026-05-04 23:27 | 52.31177 | 4.77498 | -2 ft | 9 kts | 185° |
| 2026-05-04 23:28 | 52.31100 | 4.77493 | -2 ft | 15 kts | 182° |
| 2026-05-04 23:28 | 52.30999 | 4.77485 | -2 ft | 14 kts | 184° |
| 2026-05-04 23:28 | 52.30901 | 4.77473 | -2 ft | 14 kts | 185° |
| 2026-05-04 23:28 | 52.30842 | 4.77435 | -2 ft | 7 kts | 244° |
| 2026-05-04 23:29 | 52.30840 | 4.77417 | -2 ft | 1 kts | 261° |
| 2026-05-04 23:29 | 52.30823 | 4.77365 | -2 ft | 7 kts | 209° |
| 2026-05-04 23:29 | 52.30797 | 4.77357 | -2 ft | 1 kts | 182° |
| 2026-05-04 23:29 | 52.30790 | 4.77356 | -2 ft | 1 kts | 183° |
| 2026-05-04 23:30 | 52.30785 | 4.77356 | -2 ft | 0 kts | 183° |
| 2026-05-04 23:30 | 52.30784 | 4.77356 | -2 ft | 0 kts | 183° |